Time;durP1;ratioP1;P1;durP2;ratioP2;P2;SDS_P1;SDS_P2;PMS_P1;PMS_P2;Temp;Humidity;BMP_temperature;BMP_pressure;BME280_temperature;BME280_humidity;BME280_pressure;Samples;Min_cycle;Max_cycle;Signal;HPM_P1;HPM_P2
2023/10/05 00:02:11;;;;;;;16.20;3.13;;;;;;;12.53;99.63;102076.09;5001399;28;20026;-65
2023/10/05 00:04:40;;;;;;;16.15;3.42;;;;;;;12.54;99.13;102088.94;4994640;28;20049;-66
2023/10/05 00:07:07;;;;;;;7.47;2.47;;;;;;;12.52;99.57;102083.06;4998878;28;20113;-66
2023/10/05 00:09:33;;;;;;;12.77;3.17;;;;;;;12.54;99.18;102081.13;4998291;28;20042;-66
2023/10/05 00:12:02;;;;;;;16.83;2.95;;;;;;;12.46;99.58;102078.41;5002907;28;20049;-66
2023/10/05 00:14:27;;;;;;;9.73;2.90;;;;;;;12.54;99.36;102078.53;4997136;28;20050;-66
2023/10/05 00:16:55;;;;;;;11.55;3.00;;;;;;;12.48;99.71;102079.09;5000559;28;20484;-66
2023/10/05 00:19:21;;;;;;;20.58;3.97;;;;;;;12.49;99.73;102083.34;4996106;28;20069;-66
2023/10/05 00:21:51;;;;;;;14.32;3.00;;;;;;;12.48;100.00;102084.28;4998890;28;20036;-66
2023/10/05 00:26:58;;;;;;;10.93;3.10;;;;;;;12.51;99.76;102091.00;4999598;28;20096;-66
2023/10/05 00:29:28;;;;;;;9.48;2.97;;;;;;;12.49;99.83;102091.16;4979903;28;20177;-66
2023/10/05 00:31:59;;;;;;;13.52;3.45;;;;;;;12.54;100.00;102091.53;5012804;28;20128;-66
2023/10/05 00:34:27;;;;;;;14.20;3.05;;;;;;;12.51;100.00;102091.00;4995308;28;20448;-66
2023/10/05 00:36:59;;;;;;;7.97;2.95;;;;;;;12.54;100.00;102083.72;4981404;28;20597;-66
2023/10/05 00:39:26;;;;;;;12.57;2.85;;;;;;;12.59;99.64;102080.75;4979057;28;20042;-66
2023/10/05 00:44:34;;;;;;;13.30;2.63;;;;;;;12.52;100.00;102087.44;4995364;28;20041;-66
2023/10/05 00:47:00;;;;;;;8.98;2.85;;;;;;;12.49;100.00;102087.72;4997685;28;20057;-66
2023/10/05 00:49:51;;;;;;;11.90;2.88;;;;;;;12.46;100.00;102094.81;4991039;28;20477;-66
2023/10/05 00:52:18;;;;;;;11.75;2.75;;;;;;;12.45;100.00;102093.19;5010137;28;20034;-66
2023/10/05 00:54:49;;;;;;;11.85;3.63;;;;;;;12.49;100.00;102105.91;5008945;28;20056;-66
2023/10/05 00:57:19;;;;;;;13.52;2.92;;;;;;;12.51;100.00;102102.25;5000846;28;20112;-66
2023/10/05 00:59:56;;;;;;;12.43;2.60;;;;;;;12.50;100.00;102099.78;5011148;28;20325;-66
2023/10/05 01:02:22;;;;;;;12.27;2.95;;;;;;;12.53;100.00;102102.91;4997265;28;20025;-66
2023/10/05 01:05:01;;;;;;;6.22;2.67;;;;;;;12.58;100.00;102098.13;4986737;28;20487;-66
2023/10/05 01:10:20;;;;;;;10.75;2.88;;;;;;;12.50;100.00;102100.59;5000734;28;20069;-66
2023/10/05 01:12:47;;;;;;;11.38;2.92;;;;;;;12.52;100.00;102096.06;4998096;28;20060;-65
2023/10/05 01:15:30;;;;;;;10.90;2.33;;;;;;;12.49;100.00;102098.13;4997766;28;20033;-66
2023/10/05 01:17:56;;;;;;;11.82;3.35;;;;;;;12.46;100.00;102087.03;4983447;28;20177;-66
2023/10/05 01:22:48;;;;;;;9.13;2.53;;;;;;;12.56;100.00;102099.22;4998192;28;20048;-66
2023/10/05 01:25:14;;;;;;;8.65;2.50;;;;;;;12.51;100.00;102093.59;4998715;28;20042;-66
2023/10/05 01:27:47;;;;;;;10.93;2.72;;;;;;;12.56;100.00;102094.81;5002379;28;20033;-66
2023/10/05 01:30:12;;;;;;;9.95;3.03;;;;;;;12.55;100.00;102093.19;5000131;28;20045;-66
2023/10/05 01:32:42;;;;;;;8.95;2.25;;;;;;;12.56;100.00;102101.81;4984309;28;20033;-66
2023/10/05 01:35:15;;;;;;;13.65;3.33;;;;;;;12.51;100.00;102099.63;5005132;28;20033;-66
2023/10/05 01:37:43;;;;;;;10.07;2.05;;;;;;;12.56;100.00;102101.81;4988659;28;20415;-66
2023/10/05 01:42:46;;;;;;;9.57;2.35;;;;;;;12.55;100.00;102106.22;5003814;28;20404;-66
2023/10/05 01:45:15;;;;;;;11.70;2.50;;;;;;;12.61;100.00;102105.66;5004528;28;20120;-66
2023/10/05 01:47:43;;;;;;;7.10;2.30;;;;;;;12.64;100.00;102100.19;4999815;28;20040;-66
2023/10/05 01:50:16;;;;;;;8.30;2.50;;;;;;;12.67;99.97;102104.28;5003000;28;20038;-66
2023/10/05 01:52:41;;;;;;;9.33;2.50;;;;;;;12.67;99.56;102101.69;4997231;28;20037;-66
2023/10/05 01:55:11;;;;;;;13.00;2.42;;;;;;;12.65;99.47;102099.19;4985372;28;20464;-66
2023/10/05 01:57:37;;;;;;;11.13;2.53;;;;;;;12.64;99.39;102099.38;5002576;28;20041;-67
2023/10/05 02:00:13;;;;;;;6.40;2.40;;;;;;;12.61;99.99;102092.63;5006676;28;20032;-66
2023/10/05 02:02:41;;;;;;;12.35;2.95;;;;;;;12.55;100.00;102098.41;5016677;28;20125;-66
2023/10/05 02:05:07;;;;;;;9.40;2.20;;;;;;;12.52;100.00;102100.44;5000875;28;20033;-66
2023/10/05 02:07:35;;;;;;;11.60;2.72;;;;;;;12.51;100.00;102091.84;5000964;28;20412;-66
2023/10/05 02:10:03;;;;;;;10.52;2.65;;;;;;;12.51;100.00;102091.00;5014422;28;20034;-65
2023/10/05 02:12:29;;;;;;;6.35;2.05;;;;;;;12.51;100.00;102088.38;4981851;28;20060;-66
2023/10/05 02:14:57;;;;;;;8.85;2.03;;;;;;;12.55;100.00;102080.19;4979626;28;20050;-66
2023/10/05 02:17:23;;;;;;;9.70;2.28;;;;;;;12.47;100.00;102080.06;5002731;28;20037;-66
2023/10/05 02:19:49;;;;;;;5.57;2.10;;;;;;;12.56;100.00;102081.00;4983947;28;20035;-66
2023/10/05 02:22:15;;;;;;;10.38;2.67;;;;;;;12.61;99.61;102084.03;5001064;28;20549;-66
2023/10/05 02:24:41;;;;;;;8.52;2.45;;;;;;;12.62;100.00;102083.03;4996597;28;20492;-66
2023/10/05 02:27:12;;;;;;;10.27;2.67;;;;;;;12.59;100.00;102089.34;5003016;28;20044;-66
2023/10/05 02:29:40;;;;;;;8.95;2.10;;;;;;;12.51;100.00;102075.38;4996457;28;20034;-66
2023/10/05 02:32:10;;;;;;;11.93;2.10;;;;;;;12.49;100.00;102070.34;5002114;28;20034;-67
2023/10/05 02:37:06;;;;;;;8.93;2.05;;;;;;;12.54;100.00;102078.53;4998490;28;20038;-66
2023/10/05 02:39:38;;;;;;;11.68;2.38;;;;;;;12.57;100.00;102073.06;5001451;28;20034;-66
2023/10/05 02:42:11;;;;;;;8.20;1.85;;;;;;;12.55;100.00;102069.78;4996260;28;20042;-66
2023/10/05 02:44:37;;;;;;;8.20;2.72;;;;;;;12.47;100.00;102069.66;4997233;28;20046;-66
2023/10/05 02:47:10;;;;;;;10.68;2.00;;;;;;;12.44;100.00;102068.13;4999260;28;20191;-66
2023/10/05 02:49:47;;;;;;;8.00;2.30;;;;;;;12.41;100.00;102063.22;4997729;28;20113;-66
2023/10/05 02:52:15;;;;;;;10.45;2.13;;;;;;;12.44;100.00;102064.72;5000631;28;20033;-66
2023/10/05 02:54:45;;;;;;;10.98;2.08;;;;;;;12.42;100.00;102064.84;5000590;28;20040;-66
2023/10/05 02:57:13;;;;;;;12.18;2.28;;;;;;;12.38;100.00;102068.69;4999128;28;20075;-66
2023/10/05 02:59:38;;;;;;;12.50;2.28;;;;;;;12.50;100.00;102060.75;4999195;28;20251;-67
2023/10/05 03:02:08;;;;;;;8.18;1.80;;;;;;;12.49;100.00;102065.13;5001355;28;20224;-66
2023/10/05 03:04:57;;;;;;;10.73;2.05;;;;;;;12.48;100.00;102055.69;4983360;28;20026;-66
2023/10/05 03:07:25;;;;;;;11.00;2.22;;;;;;;12.42;100.00;102056.22;5009145;28;20669;-66
2023/10/05 03:09:52;;;;;;;6.55;2.30;;;;;;;12.34;100.00;102054.31;4997861;28;20049;-66
2023/10/05 03:12:25;;;;;;;11.88;2.28;;;;;;;12.33;100.00;102051.84;4998424;28;20036;-66
2023/10/05 03:14:56;;;;;;;10.38;1.92;;;;;;;12.28;100.00;102052.25;5013184;28;20034;-66
2023/10/05 03:17:26;;;;;;;5.55;2.03;;;;;;;12.23;100.00;102063.06;4999618;28;20395;-66
2023/10/05 03:19:51;;;;;;;8.63;2.28;;;;;;;12.18;100.00;102060.03;4978692;28;20405;-66
2023/10/05 03:22:17;;;;;;;11.23;2.00;;;;;;;12.16;100.00;102050.75;4989236;28;20572;-66
2023/10/05 03:24:47;;;;;;;8.77;1.92;;;;;;;12.15;100.00;102055.13;4997035;28;20042;-66
2023/10/05 03:27:14;;;;;;;11.55;2.20;;;;;;;12.16;100.00;102056.75;4998523;28;20033;-66
2023/10/05 03:29:45;;;;;;;6.80;1.90;;;;;;;12.12;100.00;102054.59;4995863;28;20124;-66
2023/10/05 03:34:38;;;;;;;7.32;2.08;;;;;;;12.08;100.00;102049.66;4997540;28;20033;-66
2023/10/05 03:37:13;;;;;;;9.20;1.85;;;;;;;12.13;100.00;102053.63;4985364;28;20042;-66
2023/10/05 03:39:53;;;;;;;10.32;2.47;;;;;;;12.12;100.00;102054.59;4992661;28;20448;-66
2023/10/05 03:42:22;;;;;;;8.63;2.10;;;;;;;12.12;100.00;102055.41;5011115;28;20040;-66
2023/10/05 03:45:00;;;;;;;11.73;2.40;;;;;;;12.17;100.00;102057.59;4998755;28;20030;-66
2023/10/05 03:47:27;;;;;;;10.32;2.42;;;;;;;12.11;100.00;102064.16;5000922;28;20041;-66
2023/10/05 03:49:55;;;;;;;10.52;2.30;;;;;;;12.10;100.00;102061.69;4997897;28;20047;-66
2023/10/05 03:52:29;;;;;;;10.35;2.63;;;;;;;12.06;100.00;102063.75;4999287;28;20085;-66
2023/10/05 03:55:10;;;;;;;9.43;2.42;;;;;;;11.99;100.00;102067.84;4996449;28;20119;-66
2023/10/05 03:57:37;;;;;;;13.80;2.45;;;;;;;11.94;100.00;102072.59;5001436;28;21716;-66
2023/10/05 04:00:24;;;;;;;8.82;2.35;;;;;;;11.98;100.00;102067.03;4999538;28;20046;-66
2023/10/05 04:02:53;;;;;;;19.45;3.58;;;;;;;12.06;100.00;102063.75;4979819;28;22099;-66
2023/10/05 04:05:23;;;;;;;6.80;2.05;;;;;;;12.00;100.00;102067.72;4983409;28;20133;-66
2023/10/05 04:07:50;;;;;;;7.63;2.08;;;;;;;12.05;100.00;102062.94;5000159;28;20133;-66
2023/10/05 04:10:20;;;;;;;8.80;2.67;;;;;;;12.08;100.00;102073.03;5013571;28;20041;-66
2023/10/05 04:12:46;;;;;;;7.57;2.47;;;;;;;12.05;100.00;102067.28;4999616;28;20034;-66
2023/10/05 04:15:12;;;;;;;10.52;2.33;;;;;;;11.96;100.00;102076.72;4996077;28;20027;-66
2023/10/05 04:17:42;;;;;;;10.65;2.22;;;;;;;11.99;100.00;102071.25;4999680;28;20128;-68
2023/10/05 04:20:09;;;;;;;10.82;2.40;;;;;;;12.08;100.00;102067.84;4998733;28;20033;-66
2023/10/05 04:22:37;;;;;;;9.63;2.33;;;;;;;12.00;100.00;102069.50;5013482;28;21190;-66
2023/10/05 04:25:04;;;;;;;13.48;2.45;;;;;;;11.97;100.00;102065.38;4996642;28;20050;-66
2023/10/05 04:27:30;;;;;;;8.20;2.22;;;;;;;11.92;100.00;102069.31;4999526;28;20056;-66
2023/10/05 04:29:56;;;;;;;10.25;2.53;;;;;;;11.84;100.00;102073.38;4987260;28;21173;-66
2023/10/05 04:32:21;;;;;;;8.68;2.28;;;;;;;11.84;100.00;102067.34;5003123;28;20498;-66
2023/10/05 04:34:47;;;;;;;7.93;2.33;;;;;;;11.81;100.00;102068.47;5002022;28;20389;-66
2023/10/05 04:37:12;;;;;;;11.57;2.50;;;;;;;11.84;100.00;102072.56;4991556;28;20080;-64
2023/10/05 04:39:40;;;;;;;9.05;2.08;;;;;;;11.90;100.00;102074.66;5000891;28;20081;-65
2023/10/05 04:42:11;;;;;;;8.23;2.80;;;;;;;11.82;100.00;102064.88;5004449;28;20049;-66
2023/10/05 04:44:38;;;;;;;7.72;2.40;;;;;;;11.78;100.00;102057.50;5002117;28;20038;-66
2023/10/05 04:47:06;;;;;;;9.63;2.60;;;;;;;11.75;100.00;102057.75;5005839;28;20437;-66
2023/10/05 04:49:35;;;;;;;12.30;2.33;;;;;;;11.70;100.00;102060.78;5001908;28;20042;-66
2023/10/05 04:52:04;;;;;;;6.30;1.92;;;;;;;11.67;100.00;102058.44;5002525;28;20474;-66
2023/10/05 04:54:34;;;;;;;9.02;2.58;;;;;;;11.72;100.00;102063.25;5003487;28;20033;-66
2023/10/05 04:57:06;;;;;;;12.93;2.20;;;;;;;11.66;100.00;102057.63;5000811;28;20038;-66
2023/10/05 05:02:12;;;;;;;13.52;2.80;;;;;;;11.69;100.00;102062.53;4999246;28;20136;-65
2023/10/05 05:04:51;;;;;;;12.18;2.72;;;;;;;11.64;100.00;102063.88;4999400;28;20469;-65
2023/10/05 05:07:21;;;;;;;9.88;2.97;;;;;;;11.73;100.00;102055.28;5004921;28;20034;-66
2023/10/05 05:09:47;;;;;;;8.55;2.50;;;;;;;11.80;100.00;102056.41;4999747;28;20061;-66
2023/10/05 05:12:16;;;;;;;14.40;2.90;;;;;;;11.76;100.00;102056.81;4998976;28;20134;-66
2023/10/05 05:14:49;;;;;;;12.05;2.88;;;;;;;11.70;100.00;102047.78;5002669;28;20050;-65
2023/10/05 05:17:18;;;;;;;;;;;;;;;11.71;100.00;102043.41;5000732;28;20415;-66
2023/10/05 05:19:44;;;;;;;9.40;2.88;;;;;;;11.76;100.00;102044.63;5002907;28;20008;-66
2023/10/05 05:22:11;;;;;;;9.52;2.70;;;;;;;11.70;100.00;102034.78;5001743;28;20082;-67
2023/10/05 05:24:37;;;;;;;8.57;2.50;;;;;;;11.67;100.00;102046.25;5001523;28;20100;-66
2023/10/05 05:27:10;;;;;;;8.93;2.10;;;;;;;11.67;100.00;102040.25;4999144;28;20030;-66
2023/10/05 05:29:36;;;;;;;16.08;2.92;;;;;;;11.65;100.00;102047.34;4994706;28;20435;-66
2023/10/05 05:32:07;;;;;;;10.68;2.15;;;;;;;11.64;100.00;102041.34;4999576;28;20034;-66
2023/10/05 05:34:33;;;;;;;8.85;2.40;;;;;;;11.65;100.00;102047.34;5002004;28;20133;-67
2023/10/05 05:36:59;;;;;;;10.05;2.50;;;;;;;11.67;100.00;102040.25;5004712;28;20243;-66
2023/10/05 05:39:26;;;;;;;9.90;3.40;;;;;;;11.62;100.00;102039.81;4999697;28;20049;-66
2023/10/05 05:42:07;;;;;;;16.67;2.60;;;;;;;11.68;100.00;102031.50;5000957;28;20018;-67
2023/10/05 05:44:36;;;;;;;8.02;2.20;;;;;;;11.76;100.00;102029.06;5014128;28;20061;-67
2023/10/05 05:47:09;;;;;;;12.35;2.63;;;;;;;11.74;100.00;102030.97;5001611;28;20029;-67
2023/10/05 05:49:34;;;;;;;10.90;2.33;;;;;;;11.67;100.00;102027.25;4999478;28;20670;-67
2023/10/05 05:52:00;;;;;;;14.00;2.95;;;;;;;11.64;100.00;102037.91;5001214;28;20045;-67
2023/10/05 05:54:31;;;;;;;8.38;2.42;;;;;;;11.63;100.00;102044.06;4999533;28;20034;-69
2023/10/05 05:56:57;;;;;;;11.10;2.92;;;;;;;11.65;100.00;102053.34;5005063;28;20392;-66
2023/10/05 05:59:22;;;;;;;11.70;2.70;;;;;;;11.68;100.00;102065.28;5004195;28;20034;-66
2023/10/05 06:01:50;;;;;;;13.45;2.95;;;;;;;11.66;100.00;102078.41;5004085;28;20045;-66
2023/10/05 06:04:16;;;;;;;6.70;2.47;;;;;;;11.67;100.00;102082.63;4999791;28;20046;-67
2023/10/05 06:06:43;;;;;;;12.52;2.45;;;;;;;11.64;100.00;102082.06;5000535;28;20054;-67
2023/10/05 06:09:11;;;;;;;8.80;2.15;;;;;;;11.65;100.00;102076.75;5000641;28;20485;-67
2023/10/05 06:11:37;;;;;;;9.25;2.30;;;;;;;11.73;100.00;102085.66;4994830;28;20041;-67
2023/10/05 06:14:05;;;;;;;11.48;2.35;;;;;;;11.70;100.00;102089.34;4990435;28;20664;-67
2023/10/05 06:16:33;;;;;;;14.32;2.92;;;;;;;11.73;100.00;102099.47;5003763;28;20029;-67
2023/10/05 06:18:59;;;;;;;11.50;2.75;;;;;;;11.77;100.00;102103.47;5013429;28;20046;-67
2023/10/05 06:21:25;;;;;;;7.88;2.47;;;;;;;11.82;100.00;102096.06;5001251;28;20526;-67
2023/10/05 06:23:51;;;;;;;10.50;3.10;;;;;;;11.83;100.00;102100.34;5001154;28;20049;-67
2023/10/05 06:26:16;;;;;;;10.25;2.60;;;;;;;11.91;100.00;102101.47;4999768;28;20641;-67
2023/10/05 06:28:42;;;;;;;12.77;2.65;;;;;;;11.90;100.00;102100.63;5001372;28;20042;-67
2023/10/05 06:31:11;;;;;;;12.02;2.00;;;;;;;11.92;100.00;102109.13;5005558;28;20033;-66
2023/10/05 06:33:38;;;;;;;13.10;2.78;;;;;;;11.92;100.00;102113.50;5005595;28;20049;-67
2023/10/05 06:36:04;;;;;;;19.70;3.75;;;;;;;11.90;100.00;102103.22;5000666;28;20039;-67
2023/10/05 06:38:29;;;;;;;9.52;2.58;;;;;;;11.96;100.00;102104.47;5013945;28;20039;-67
2023/10/05 06:40:55;;;;;;;16.83;5.35;;;;;;;12.12;100.00;102112.59;5001268;28;20042;-66
2023/10/05 06:43:21;;;;;;;14.32;4.70;;;;;;;12.05;100.00;102107.13;5005401;28;20045;-66
2023/10/05 06:45:48;;;;;;;9.35;3.13;;;;;;;12.09;100.00;102099.84;5001625;28;20453;-67
2023/10/05 06:48:14;;;;;;;19.33;2.60;;;;;;;12.12;100.00;102101.38;5000005;28;20120;-66
2023/10/05 06:50:41;;;;;;;12.25;3.10;;;;;;;12.22;100.00;102103.06;5005136;28;20172;-67
2023/10/05 06:53:11;;;;;;;13.88;2.58;;;;;;;12.24;100.00;102105.50;4998176;28;20443;-67
2023/10/05 06:55:36;;;;;;;10.73;2.20;;;;;;;12.29;100.00;102103.31;5001872;28;20049;-66
2023/10/05 06:58:03;;;;;;;11.25;2.60;;;;;;;12.32;100.00;102115.22;4998000;28;20030;-67
2023/10/05 07:00:29;;;;;;;13.65;2.60;;;;;;;12.32;100.00;102110.00;5001918;28;20026;-67
2023/10/05 07:02:58;;;;;;;4.75;2.10;;;;;;;12.34;100.00;102113.28;4999821;28;20428;-67
2023/10/05 07:05:24;;;;;;;13.05;2.60;;;;;;;12.38;100.00;102118.09;5001528;28;20092;-67
2023/10/05 07:07:49;;;;;;;9.50;3.20;;;;;;;12.35;100.00;102117.56;4999528;28;20590;-67
2023/10/05 07:10:15;;;;;;;15.18;3.40;;;;;;;12.48;100.00;102130.31;5003573;28;20038;-66
2023/10/05 07:12:45;;;;;;;7.82;2.55;;;;;;;12.63;100.00;102128.94;5000759;28;20464;-67
2023/10/05 07:15:11;;;;;;;13.75;2.50;;;;;;;12.66;100.00;102137.28;5002342;28;20540;-67
2023/10/05 07:17:37;;;;;;;11.68;2.67;;;;;;;12.61;100.00;102136.88;5002468;28;20037;-67
2023/10/05 07:20:11;;;;;;;9.80;2.30;;;;;;;12.59;100.00;102136.19;4998664;28;20408;-67
2023/10/05 07:22:37;;;;;;;12.52;2.38;;;;;;;12.70;100.00;102137.03;5000108;28;20029;-68
2023/10/05 07:25:04;;;;;;;7.60;2.50;;;;;;;12.61;100.00;102141.25;5012338;28;20502;-68
2023/10/05 07:27:30;;;;;;;13.00;3.10;;;;;;;12.62;100.00;102148.94;5001149;28;20029;-68
2023/10/05 07:29:56;;;;;;;18.00;2.95;;;;;;;12.74;100.00;102152.22;5002905;28;20512;-67
2023/10/05 07:32:21;;;;;;;14.75;2.50;;;;;;;12.78;100.00;102150.16;5000580;28;20088;-67
2023/10/05 07:34:47;;;;;;;9.63;2.35;;;;;;;12.78;100.00;102145.78;5001077;28;20455;-68
2023/10/05 07:37:12;;;;;;;11.63;2.65;;;;;;;12.77;100.00;102153.72;4998878;28;20034;-67
2023/10/05 07:39:41;;;;;;;10.95;2.78;;;;;;;12.77;100.00;102158.91;5003118;28;20050;-68
2023/10/05 07:42:10;;;;;;;12.82;3.10;;;;;;;12.76;100.00;102162.50;5003243;28;20057;-68
2023/10/05 07:44:37;;;;;;;12.13;3.13;;;;;;;12.89;100.00;102170.84;5000054;28;20038;-68
2023/10/05 07:47:04;;;;;;;12.10;3.00;;;;;;;12.87;100.00;102167.56;5001782;28;20120;-68
2023/10/05 07:49:30;;;;;;;6.07;2.45;;;;;;;13.03;100.00;102170.44;5014655;28;20051;-68
2023/10/05 07:51:55;;;;;;;12.32;2.45;;;;;;;13.14;100.00;102176.44;5002308;28;20041;-68
2023/10/05 07:54:21;;;;;;;11.27;2.90;;;;;;;13.20;100.00;102184.53;5002457;28;20037;-67
2023/10/05 07:56:46;;;;;;;8.05;2.80;;;;;;;13.27;100.00;102183.97;4997415;28;20026;-67
2023/10/05 07:59:14;;;;;;;16.50;2.95;;;;;;;13.37;100.00;102182.19;4995967;28;20049;-68
2023/10/05 08:01:43;;;;;;;9.93;2.40;;;;;;;13.51;100.00;102191.34;5002416;28;20172;-67
2023/10/05 08:04:11;;;;;;;13.45;2.63;;;;;;;13.58;100.00;102190.66;4998970;28;20129;-68
2023/10/05 08:06:39;;;;;;;9.82;3.13;;;;;;;13.61;100.00;102197.34;4998389;28;20035;-68
2023/10/05 08:09:06;;;;;;;14.45;2.60;;;;;;;13.53;100.00;102192.03;4999098;28;20038;-68
2023/10/05 08:11:32;;;;;;;13.98;3.60;;;;;;;13.64;100.00;102189.25;4998947;28;20038;-67
2023/10/05 08:13:58;;;;;;;12.07;3.15;;;;;;;13.80;99.99;102197.28;5000755;28;20042;-67
2023/10/05 08:16:23;;;;;;;13.73;2.70;;;;;;;13.94;100.00;102195.19;5001421;28;20531;-67
2023/10/05 08:18:49;;;;;;;15.07;3.38;;;;;;;14.07;99.72;102206.09;4986904;28;20047;-68
2023/10/05 08:21:14;;;;;;;9.68;2.13;;;;;;;14.49;97.14;102199.53;4998613;28;20692;-68
2023/10/05 08:23:40;;;;;;;11.00;2.75;;;;;;;14.88;93.24;102201.88;5015300;28;20046;-68
2023/10/05 08:26:07;;;;;;;11.52;2.15;;;;;;;14.99;91.94;102196.41;5002865;28;20122;-68
2023/10/05 08:28:32;;;;;;;11.07;2.67;;;;;;;15.04;91.54;102204.63;4998862;28;20030;-68
2023/10/05 08:31:07;;;;;;;10.38;2.05;;;;;;;15.23;90.84;102200.19;4997279;28;20061;-68
2023/10/05 08:33:39;;;;;;;9.45;2.22;;;;;;;15.51;89.45;102198.25;4997292;28;20045;-68
2023/10/05 08:36:11;;;;;;;11.30;2.07;;;;;;;15.93;86.83;102194.88;4994610;28;20057;-68
2023/10/05 08:38:37;;;;;;;10.13;2.83;;;;;;;15.95;86.41;102192.94;5000236;28;20097;-68
2023/10/05 08:41:11;;;;;;;9.35;2.45;;;;;;;15.94;86.69;102189.50;5000887;28;22659;-68
2023/10/05 08:43:46;;;;;;;13.45;2.83;;;;;;;16.14;87.29;102200.53;5002421;28;20043;-68
2023/10/05 08:46:14;;;;;;;7.60;2.10;;;;;;;16.40;83.95;102204.03;5003307;28;20030;-68
2023/10/05 08:48:40;;;;;;;10.05;2.65;;;;;;;16.18;84.79;102201.03;5005074;28;20553;-68
2023/10/05 08:51:12;;;;;;;8.07;2.30;;;;;;;16.00;85.75;102198.50;5001856;28;20156;-68
2023/10/05 08:53:48;;;;;;;22.67;3.45;;;;;;;15.93;85.42;102207.97;4999781;28;20138;-68
2023/10/05 08:56:18;;;;;;;6.18;2.00;;;;;;;15.79;87.41;102200.72;4999119;28;20149;-68
2023/10/05 08:58:45;;;;;;;18.10;2.47;;;;;;;15.96;86.14;102202.44;5001243;28;20033;-68
2023/10/05 09:01:27;;;;;;;6.63;1.98;;;;;;;15.86;86.32;102199.09;5002490;28;20037;-68
2023/10/05 09:03:54;;;;;;;10.23;2.40;;;;;;;15.97;86.64;102204.06;5002019;28;20459;-68
2023/10/05 09:06:26;;;;;;;10.43;2.17;;;;;;;16.01;85.89;102208.00;5001936;28;20029;-68
2023/10/05 09:09:08;;;;;;;9.43;2.63;;;;;;;16.09;85.79;102209.84;5000293;28;20035;-68
2023/10/05 09:11:34;;;;;;;12.32;1.70;;;;;;;15.98;85.36;102212.75;5000704;28;20599;-67
2023/10/05 09:14:17;;;;;;;10.38;1.88;;;;;;;15.87;86.12;102213.84;4992457;28;20545;-67
2023/10/05 09:16:46;;;;;;;13.27;2.70;;;;;;;15.83;86.19;102225.59;5006458;28;20038;-67
2023/10/05 09:19:23;;;;;;;10.13;2.05;;;;;;;15.60;86.50;102222.66;5005892;28;20078;-68
2023/10/05 09:22:23;;;;;;;9.68;2.15;;;;;;;15.59;87.92;102221.81;5008231;28;20026;-68
2023/10/05 09:24:52;;;;;;;14.75;2.85;;;;;;;15.77;86.96;102229.66;5005819;28;20041;-68
2023/10/05 09:27:19;;;;;;;13.65;2.17;;;;;;;15.65;87.62;102236.06;4992294;28;20056;-68
2023/10/05 09:29:48;;;;;;;8.82;2.05;;;;;;;15.58;88.01;102238.50;5002330;28;20112;-68
2023/10/05 09:32:25;;;;;;;14.32;1.83;;;;;;;15.52;88.99;102244.31;5004259;28;20037;-68
2023/10/05 09:34:55;;;;;;;12.55;2.00;;;;;;;15.65;87.45;102239.53;5003489;28;20030;-67
2023/10/05 09:37:24;;;;;;;9.77;1.70;;;;;;;15.60;87.52;102244.38;5004830;28;20116;-68
2023/10/05 09:39:53;;;;;;;17.83;2.85;;;;;;;15.69;87.57;102250.47;5004511;28;20044;-68
2023/10/05 09:42:26;;;;;;;11.50;2.15;;;;;;;15.69;86.92;102256.53;5002350;28;20131;-68
2023/10/05 09:44:53;;;;;;;8.52;2.40;;;;;;;15.68;87.04;102265.34;5003812;28;20132;-67
2023/10/05 09:47:25;;;;;;;8.45;1.90;;;;;;;15.74;87.22;102277.00;5006143;28;20051;-68
2023/10/05 09:49:53;;;;;;;12.63;1.90;;;;;;;15.72;87.30;102290.19;5005496;28;20493;-68
2023/10/05 09:52:21;;;;;;;7.15;1.88;;;;;;;15.79;87.69;102271.34;5005368;28;20045;-68
2023/10/05 09:54:47;;;;;;;12.05;2.30;;;;;;;15.84;86.92;102280.34;5002556;28;20104;-68
2023/10/05 09:57:17;;;;;;;11.25;2.10;;;;;;;15.86;86.39;102278.41;5003388;28;20038;-68
2023/10/05 09:59:45;;;;;;;8.23;1.75;;;;;;;15.81;86.44;102278.03;4991107;28;20046;-68
2023/10/05 10:02:17;;;;;;;6.13;1.88;;;;;;;15.82;87.81;102273.63;5004638;28;20041;-68
2023/10/05 10:04:46;;;;;;;6.25;1.55;;;;;;;15.90;87.38;102273.69;5003471;28;20411;-68
2023/10/05 10:07:22;;;;;;;12.50;2.25;;;;;;;15.87;86.15;102276.59;5004935;28;20021;-68
2023/10/05 10:09:53;;;;;;;9.43;3.05;;;;;;;15.90;86.36;102273.69;5002513;28;20133;-68
2023/10/05 10:12:26;;;;;;;7.82;2.20;;;;;;;15.91;86.49;102275.31;5003163;28;20037;-70
2023/10/05 10:14:58;;;;;;;8.13;2.08;;;;;;;15.83;85.75;102257.78;4999825;28;20034;-68
2023/10/05 10:17:27;;;;;;;11.13;2.88;;;;;;;15.84;86.78;102259.44;5004209;28;20037;-68
2023/10/05 10:19:55;;;;;;;10.48;2.05;;;;;;;15.99;86.79;102258.84;5002658;28;20104;-68
2023/10/05 10:22:28;;;;;;;11.27;1.85;;;;;;;15.98;85.21;102251.97;5001702;28;20124;-68
2023/10/05 10:24:56;;;;;;;14.93;4.82;;;;;;;16.07;85.07;102254.47;5018632;28;20068;-68
2023/10/05 10:27:27;;;;;;;7.22;2.30;;;;;;;15.92;86.41;102253.44;5003933;28;20543;-68
2023/10/05 10:29:56;;;;;;;10.90;2.55;;;;;;;15.95;87.04;102250.47;5004287;28;20130;-68
2023/10/05 10:32:32;;;;;;;7.55;1.90;;;;;;;16.07;85.09;102244.00;5003964;28;20142;-68
2023/10/05 10:35:26;;;;;;;9.65;1.80;;;;;;;16.11;84.30;102250.56;5003368;28;20046;-68
2023/10/05 10:37:54;;;;;;;12.10;2.42;;;;;;;16.06;85.67;102254.63;4997813;28;20046;-68
2023/10/05 10:45:40;;;;;;;7.57;2.13;;;;;;;16.06;84.60;102265.09;5003545;28;20037;-67
2023/10/05 10:48:15;;;;;;;9.68;1.85;;;;;;;16.08;84.88;102263.94;5000640;28;20504;-68
2023/10/05 10:50:40;;;;;;;11.20;2.17;;;;;;;16.10;85.59;102269.84;5003375;28;20030;-68
2023/10/05 10:53:18;;;;;;;7.28;2.15;;;;;;;16.15;85.27;102264.97;5005541;28;20041;-68
2023/10/05 10:55:47;;;;;;;9.52;1.85;;;;;;;16.17;85.77;102254.34;5001942;28;20038;-68
2023/10/05 10:58:16;;;;;;;10.65;2.05;;;;;;;16.31;83.50;102252.91;4999618;28;20109;-68
2023/10/05 11:01:13;;;;;;;12.23;2.40;;;;;;;16.13;83.75;102253.84;5000739;28;20696;-68
2023/10/05 11:03:39;;;;;;;10.40;1.88;;;;;;;16.22;84.20;102246.84;5005833;28;20034;-67
2023/10/05 11:06:09;;;;;;;10.25;2.28;;;;;;;16.31;83.35;102245.91;5004200;28;20041;-68
2023/10/05 11:08:40;;;;;;;12.30;1.85;;;;;;;16.36;82.59;102245.41;5005647;28;20034;-67
2023/10/05 11:11:19;;;;;;;8.10;2.25;;;;;;;16.39;83.98;102245.09;5000460;28;20499;-68
2023/10/05 11:13:49;;;;;;;9.23;1.92;;;;;;;16.39;83.79;102245.09;5000501;28;20034;-68
2023/10/05 11:16:15;;;;;;;12.35;1.92;;;;;;;16.37;85.41;102243.59;5005675;28;20088;-67
2023/10/05 11:19:03;;;;;;;8.02;2.38;;;;;;;16.45;82.37;102235.78;5002470;28;20373;-68
2023/10/05 11:21:43;;;;;;;14.10;2.25;;;;;;;16.57;82.66;102233.69;5002369;28;20086;-67
2023/10/05 11:24:10;;;;;;;8.23;2.92;;;;;;;16.60;82.63;102228.94;5002779;28;20048;-67
2023/10/05 11:27:05;;;;;;;8.75;2.05;;;;;;;16.68;83.38;102233.38;4998558;28;20050;-68
2023/10/05 11:29:42;;;;;;;6.80;1.98;;;;;;;16.92;81.65;102237.84;5001868;28;20042;-67
2023/10/05 11:32:15;;;;;;;5.50;1.98;;;;;;;16.90;82.14;102230.16;4996937;28;20544;-68
2023/10/05 11:34:42;;;;;;;12.45;2.42;;;;;;;17.08;82.31;102231.78;5009984;28;20042;-67
2023/10/05 11:37:16;;;;;;;13.48;2.30;;;;;;;17.07;80.29;102219.69;4998205;28;20061;-66
2023/10/05 11:39:46;;;;;;;11.77;1.83;;;;;;;17.08;79.98;102218.69;4998051;28;20536;-67
2023/10/05 11:42:12;;;;;;;10.07;1.90;;;;;;;17.08;80.51;102216.91;4998210;28;20124;-67
2023/10/05 11:44:42;;;;;;;6.57;1.63;;;;;;;17.10;80.47;102221.94;4994767;28;20180;-67
2023/10/05 11:47:07;;;;;;;6.25;1.70;;;;;;;17.11;78.21;102221.00;5016542;28;20037;-66
2023/10/05 11:49:33;;;;;;;11.70;2.05;;;;;;;16.94;80.13;102212.31;4994174;28;20570;-67
2023/10/05 11:51:59;;;;;;;9.50;2.38;;;;;;;17.00;78.47;102205.59;4998649;28;20562;-67
2023/10/05 11:54:25;;;;;;;7.95;2.25;;;;;;;16.91;79.05;102215.25;4998092;28;20416;-66